Terminal Aerodrome Forecast
Issued by NWS

Current Version | Previous Version | Text Only | Print | Product List | Glossary Off
Versions: 1 2 3 4 5 6 7 8 9 10 11 12 13 14 15 16 17 18 19 20 21 22 23 24 25 26 27 28 29

000
FTUS41 KRNK 251850 AAA
TAFLWB
TAF AMD
KLWB 251850Z 2519/2618 07007KT P6SM VCSH OVC027
     FM252100 04005KT P6SM VCSH OVC020
     FM260000 VRB03KT P6SM BKN040
     FM260400 00000KT P6SM SCT040
     FM260600 00000KT 4SM BR SCT030
     FM261000 00000KT 1/4SM FG BKN001
     FM261300 00000KT P6SM SCT015=

USA.gov is the U.S. government's official web portal to all federal, state and local government web resources and services.